PWSweather.com
Personal Weather Stations
Station Observations
KTXROWLE6
Ravens Nest, Rowlett, TX 75089

Ravens NestRowlett, TX 75089

Lat: 32.93105, Lon: -96.57368

Elevation: 556

Station Type: Davis Vantage Pro2 6152

http://rowlett.ws

Latest ConditionsUpdated 10:25:00 PM CDT Tuesday, Mar 26, 2019
Currently Today's Max Today's Min Today's Average
Temperature 57.8°F14.3°C 69.1°F20.6°C 49.2°F9.6°C 59.2°F15.1°C
Dew Point 43.1°F6.2°C 45.2°F7.3°C 40.0°F4.4°C 42.8°F6.0°C
Winds Calm Calm 4.7 mph -7.6 kmh - - 2.0 mph 3.2 kmh
Wind Gusts -- 11.0 mph17.7 kmh - -
Humidity 58% 74% 36% 56%
Pressure 30.32 in1026.8 mb 30.41 in1029.8 mb 30.29 in1025.7 mb -
Hour Temp Dew Point Humidity Winds Wind Gusts Pressure Precip Precip Rate Daily Precip Total
10:25 PM 57.8°F14.3°C 43.1°F6.2°C 58% Calm Calm -- 30.32 in1026.8 mb 0.00 in0.0 mm 0.00 in0.0 mm 0.00 in0.0 mm
10:20 PM 57.4°F14.1°C 43.6°F6.4°C 60% Calm Calm -- 30.32 in1026.8 mb 0.00 in0.0 mm 0.00 in0.0 mm 0.00 in0.0 mm
10:15 PM 57.5°F14.2°C 43.3°F6.3°C 59% Calm Calm -- 30.32 in1026.8 mb 0.00 in0.0 mm 0.00 in0.0 mm 0.00 in0.0 mm
10:10 PM 57.7°F14.3°C 43.5°F6.4°C 59% Calm Calm -- 30.32 in1026.8 mb 0.00 in0.0 mm 0.00 in0.0 mm 0.00 in0.0 mm
10:05 PM 58.0°F14.4°C 43.8°F6.6°C 59% Calm Calm -- 30.32 in1026.8 mb 0.00 in0.0 mm 0.00 in0.0 mm 0.00 in0.0 mm
10:00 PM 58.4°F14.7°C 43.7°F6.5°C 58% Calm Calm -- 30.32 in1026.8 mb 0.00 in0.0 mm 0.00 in0.0 mm 0.00 in0.0 mm
09:55 PM 58.8°F14.9°C 43.6°F6.4°C 57% Calm Calm 1.0 mph1.6 kmh 30.32 in1026.8 mb 0.00 in0.0 mm 0.00 in0.0 mm 0.00 in0.0 mm
09:50 PM 59.1°F15.1°C 43.4°F6.3°C 56% 0.1 mph SSE0.2 kmh SSE 2.0 mph3.2 kmh 30.32 in1026.8 mb 0.00 in0.0 mm 0.00 in0.0 mm 0.00 in0.0 mm
09:45 PM 59.7°F15.4°C 43.5°F6.4°C 55% 0.6 mph SSE1.0 kmh SSE 2.0 mph3.2 kmh 30.31 in1026.4 mb 0.00 in0.0 mm 0.00 in0.0 mm 0.00 in0.0 mm
09:40 PM 59.7°F15.4°C 43.5°F6.4°C 55% 0.7 mph SSE1.1 kmh SSE 2.0 mph3.2 kmh 30.31 in1026.4 mb 0.00 in0.0 mm 0.00 in0.0 mm 0.00 in0.0 mm
09:35 PM 59.9°F15.5°C 43.7°F6.5°C 55% 1.0 mph SSE1.6 kmh SSE 2.0 mph3.2 kmh 30.31 in1026.4 mb 0.00 in0.0 mm 0.00 in0.0 mm 0.00 in0.0 mm
09:30 PM 60.2°F15.7°C 44.0°F6.7°C 55% 1.0 mph SSE1.6 kmh SSE 3.0 mph4.8 kmh 30.31 in1026.4 mb 0.00 in0.0 mm 0.00 in0.0 mm 0.00 in0.0 mm
09:25 PM 60.3°F15.7°C 43.6°F6.4°C 54% 0.8 mph SSE1.3 kmh SSE 3.0 mph4.8 kmh 30.31 in1026.4 mb 0.00 in0.0 mm 0.00 in0.0 mm 0.00 in0.0 mm
09:20 PM 60.2°F15.7°C 44.0°F6.7°C 55% 1.2 mph SE1.9 kmh SE 2.0 mph3.2 kmh 30.31 in1026.4 mb 0.00 in0.0 mm 0.00 in0.0 mm 0.00 in0.0 mm
09:15 PM 60.3°F15.7°C 44.1°F6.7°C 55% 1.2 mph SE1.9 kmh SE 2.0 mph3.2 kmh 30.31 in1026.4 mb 0.00 in0.0 mm 0.00 in0.0 mm 0.00 in0.0 mm
09:10 PM 60.5°F15.8°C 43.8°F6.6°C 54% 0.7 mph SE1.1 kmh SE 2.0 mph3.2 kmh 30.31 in1026.4 mb 0.00 in0.0 mm 0.00 in0.0 mm 0.00 in0.0 mm
09:05 PM 60.5°F15.8°C 43.8°F6.6°C 54% 0.5 mph SE0.8 kmh SE 2.0 mph3.2 kmh 30.31 in1026.4 mb 0.00 in0.0 mm 0.00 in0.0 mm 0.00 in0.0 mm
09:00 PM 60.7°F15.9°C 44.0°F6.7°C 54% 0.4 mph SE0.6 kmh SE 2.0 mph3.2 kmh 30.30 in1026.1 mb 0.00 in0.0 mm 0.00 in0.0 mm 0.00 in0.0 mm
08:55 PM 60.9°F16.1°C 44.1°F6.7°C 54% 0.8 mph SE1.3 kmh SE 2.0 mph3.2 kmh 30.30 in1026.1 mb 0.00 in0.0 mm 0.00 in0.0 mm 0.00 in0.0 mm
08:50 PM 61.2°F16.2°C 43.9°F6.6°C 53% 0.7 mph SE1.1 kmh SE 2.0 mph3.2 kmh 30.30 in1026.1 mb 0.00 in0.0 mm 0.00 in0.0 mm 0.00 in0.0 mm
08:45 PM 61.3°F16.3°C 44.0°F6.7°C 53% 0.3 mph SE0.5 kmh SE 1.0 mph1.6 kmh 30.30 in1026.1 mb 0.00 in0.0 mm 0.00 in0.0 mm 0.00 in0.0 mm
08:40 PM 61.5°F16.4°C 43.7°F6.5°C 52% 0.6 mph SE1.0 kmh SE 2.0 mph3.2 kmh 30.30 in1026.1 mb 0.00 in0.0 mm 0.00 in0.0 mm 0.00 in0.0 mm
08:35 PM 61.9°F16.6°C 43.6°F6.4°C 51% 0.8 mph SE1.3 kmh SE 2.0 mph3.2 kmh 30.30 in1026.1 mb 0.00 in0.0 mm 0.00 in0.0 mm 0.00 in0.0 mm
08:30 PM 62.1°F16.7°C 43.8°F6.6°C 51% 0.6 mph SE1.0 kmh SE 2.0 mph3.2 kmh 30.30 in1026.1 mb 0.00 in0.0 mm 0.00 in0.0 mm 0.00 in0.0 mm
08:25 PM 62.2°F16.8°C 43.3°F6.3°C 50% 0.7 mph SE1.1 kmh SE 2.0 mph3.2 kmh 30.30 in1026.1 mb 0.00 in0.0 mm 0.00 in0.0 mm 0.00 in0.0 mm
08:20 PM 62.3°F16.8°C 43.4°F6.3°C 50% 0.8 mph SE1.3 kmh SE 2.0 mph3.2 kmh 30.30 in1026.1 mb 0.00 in0.0 mm 0.00 in0.0 mm 0.00 in0.0 mm
08:15 PM 62.5°F16.9°C 43.1°F6.2°C 49% 1.1 mph SE1.8 kmh SE 3.0 mph4.8 kmh 30.29 in1025.7 mb 0.00 in0.0 mm 0.00 in0.0 mm 0.00 in0.0 mm
08:10 PM 62.7°F17.1°C 43.3°F6.3°C 49% 1.1 mph SE1.8 kmh SE 3.0 mph4.8 kmh 30.29 in1025.7 mb 0.00 in0.0 mm 0.00 in0.0 mm 0.00 in0.0 mm
08:05 PM 62.9°F17.2°C 42.9°F6.1°C 48% 1.0 mph SE1.6 kmh SE 2.0 mph3.2 kmh 30.29 in1025.7 mb 0.00 in0.0 mm 0.00 in0.0 mm 0.00 in0.0 mm
08:00 PM 63.0°F17.2°C 43.0°F6.1°C 48% 1.2 mph SE1.9 kmh SE 3.0 mph4.8 kmh 30.29 in1025.7 mb 0.00 in0.0 mm 0.00 in0.0 mm 0.00 in0.0 mm
07:55 PM 63.2°F17.3°C 43.2°F6.2°C 48% 1.4 mph SE2.3 kmh SE 3.0 mph4.8 kmh 30.29 in1025.7 mb 0.00 in0.0 mm 0.00 in0.0 mm 0.00 in0.0 mm
07:50 PM 63.5°F17.5°C 42.9°F6.1°C 47% 1.0 mph SE1.6 kmh SE 3.0 mph4.8 kmh 30.29 in1025.7 mb 0.00 in0.0 mm 0.00 in0.0 mm 0.00 in0.0 mm
07:45 PM 63.8°F17.7°C 43.2°F6.2°C 47% 1.2 mph SE1.9 kmh SE 3.0 mph4.8 kmh 30.29 in1025.7 mb 0.00 in0.0 mm 0.00 in0.0 mm 0.00 in0.0 mm
07:40 PM 64.1°F17.8°C 42.9°F6.1°C 46% 1.8 mph SE2.9 kmh SE 3.0 mph4.8 kmh 30.29 in1025.7 mb 0.00 in0.0 mm 0.00 in0.0 mm 0.00 in0.0 mm
07:35 PM 64.3°F17.9°C 43.1°F6.2°C 46% 1.6 mph SE2.6 kmh SE 3.0 mph4.8 kmh 30.29 in1025.7 mb 0.00 in0.0 mm 0.00 in0.0 mm 0.00 in0.0 mm
07:30 PM 64.6°F18.1°C 42.8°F6.0°C 45% 1.5 mph SE2.4 kmh SE 3.0 mph4.8 kmh 30.29 in1025.7 mb 0.00 in0.0 mm 0.00 in0.0 mm 0.00 in0.0 mm
07:25 PM 65.0°F18.3°C 42.6°F5.9°C 44% 1.8 mph SE2.9 kmh SE 4.0 mph6.4 kmh 30.29 in1025.7 mb 0.00 in0.0 mm 0.00 in0.0 mm 0.00 in0.0 mm
07:20 PM 65.4°F18.6°C 42.3°F5.7°C 43% 1.8 mph SE2.9 kmh SE 4.0 mph6.4 kmh 30.29 in1025.7 mb 0.00 in0.0 mm 0.00 in0.0 mm 0.00 in0.0 mm
07:15 PM 65.8°F18.8°C 42.7°F5.9°C 43% 1.9 mph SE3.1 kmh SE 4.0 mph6.4 kmh 30.29 in1025.7 mb 0.00 in0.0 mm 0.00 in0.0 mm 0.00 in0.0 mm
07:10 PM 66.1°F18.9°C 42.3°F5.7°C 42% 1.9 mph SE3.1 kmh SE 4.0 mph6.4 kmh 30.29 in1025.7 mb 0.00 in0.0 mm 0.00 in0.0 mm 0.00 in0.0 mm
07:05 PM 66.4°F19.1°C 42.6°F5.9°C 42% 2.0 mph SE3.2 kmh SE 4.0 mph6.4 kmh 30.29 in1025.7 mb 0.00 in0.0 mm 0.00 in0.0 mm 0.00 in0.0 mm
07:00 PM 66.5°F19.2°C 42.1°F5.6°C 41% 2.2 mph SE3.5 kmh SE 4.0 mph6.4 kmh 30.29 in1025.7 mb 0.00 in0.0 mm 0.00 in0.0 mm 0.00 in0.0 mm
06:55 PM 66.7°F19.3°C 41.6°F5.3°C 40% 2.1 mph SE3.4 kmh SE 5.0 mph8.0 kmh 30.29 in1025.7 mb 0.00 in0.0 mm 0.00 in0.0 mm 0.00 in0.0 mm
06:50 PM 67.2°F19.6°C 41.4°F5.2°C 39% 2.8 mph SE4.5 kmh SE 8.0 mph12.9 kmh 30.29 in1025.7 mb 0.00 in0.0 mm 0.00 in0.0 mm 0.00 in0.0 mm
06:45 PM 67.4°F19.7°C 40.9°F4.9°C 38% 3.0 mph SE4.8 kmh SE 8.0 mph12.9 kmh 30.29 in1025.7 mb 0.00 in0.0 mm 0.00 in0.0 mm 0.00 in0.0 mm
06:40 PM 67.5°F19.7°C 42.3°F5.7°C 40% 1.9 mph SSE3.1 kmh SSE 4.0 mph6.4 kmh 30.29 in1025.7 mb 0.00 in0.0 mm 0.00 in0.0 mm 0.00 in0.0 mm
06:35 PM 67.6°F19.8°C 41.8°F5.4°C 39% 1.7 mph SE2.7 kmh SE 3.0 mph4.8 kmh 30.29 in1025.7 mb 0.00 in0.0 mm 0.00 in0.0 mm 0.00 in0.0 mm
06:30 PM 67.8°F19.9°C 40.6°F4.8°C 37% 1.6 mph SE2.6 kmh SE 5.0 mph8.0 kmh 30.29 in1025.7 mb 0.00 in0.0 mm 0.00 in0.0 mm 0.00 in0.0 mm
06:25 PM 67.9°F19.9°C 42.0°F5.6°C 39% 2.3 mph SE3.7 kmh SE 7.0 mph11.3 kmh 30.29 in1025.7 mb 0.00 in0.0 mm 0.00 in0.0 mm 0.00 in0.0 mm
06:20 PM 67.9°F19.9°C 40.7°F4.8°C 37% 2.3 mph SE3.7 kmh SE 7.0 mph11.3 kmh 30.29 in1025.7 mb 0.00 in0.0 mm 0.00 in0.0 mm 0.00 in0.0 mm
06:15 PM 67.9°F19.9°C 40.7°F4.8°C 37% 1.6 mph SE2.6 kmh SE 5.0 mph8.0 kmh 30.29 in1025.7 mb 0.00 in0.0 mm 0.00 in0.0 mm 0.00 in0.0 mm
06:10 PM 67.9°F19.9°C 40.0°F4.4°C 36% 2.9 mph SE4.7 kmh SE 6.0 mph9.7 kmh 30.29 in1025.7 mb 0.00 in0.0 mm 0.00 in0.0 mm 0.00 in0.0 mm
06:05 PM 68.3°F20.2°C 41.0°F5.0°C 37% 2.9 mph SE4.7 kmh SE 6.0 mph9.7 kmh 30.29 in1025.7 mb 0.00 in0.0 mm 0.00 in0.0 mm 0.00 in0.0 mm
06:00 PM 68.1°F20.1°C 40.8°F4.9°C 37% 2.3 mph SSE3.7 kmh SSE 5.0 mph8.0 kmh 30.29 in1025.7 mb 0.00 in0.0 mm 0.00 in0.0 mm 0.00 in0.0 mm
05:55 PM 68.0°F20.0°C 40.7°F4.8°C 37% 2.7 mph SE4.3 kmh SE 6.0 mph9.7 kmh 30.29 in1025.7 mb 0.00 in0.0 mm 0.00 in0.0 mm 0.00 in0.0 mm
05:50 PM 68.5°F20.3°C 41.2°F5.1°C 37% 2.2 mph SE3.5 kmh SE 6.0 mph9.7 kmh 30.29 in1025.7 mb 0.00 in0.0 mm 0.00 in0.0 mm 0.00 in0.0 mm
05:45 PM 68.6°F20.3°C 41.3°F5.2°C 37% 2.6 mph SE4.2 kmh SE 6.0 mph9.7 kmh 30.29 in1025.7 mb 0.00 in0.0 mm 0.00 in0.0 mm 0.00 in0.0 mm
05:40 PM 68.2°F20.1°C 40.9°F4.9°C 37% 3.1 mph S5.0 kmh S 6.0 mph9.7 kmh 30.30 in1026.1 mb 0.00 in0.0 mm 0.00 in0.0 mm 0.00 in0.0 mm
05:35 PM 68.4°F20.2°C 40.4°F4.7°C 36% 2.6 mph SE4.2 kmh SE 6.0 mph9.7 kmh 30.30 in1026.1 mb 0.00 in0.0 mm 0.00 in0.0 mm 0.00 in0.0 mm
05:30 PM 68.0°F20.0°C 41.4°F5.2°C 38% 2.7 mph S4.3 kmh S 8.0 mph12.9 kmh 30.30 in1026.1 mb 0.00 in0.0 mm 0.00 in0.0 mm 0.00 in0.0 mm
05:25 PM 68.3°F20.2°C 40.3°F4.6°C 36% 3.2 mph SSE5.1 kmh SSE 8.0 mph12.9 kmh 30.30 in1026.1 mb 0.00 in0.0 mm 0.00 in0.0 mm 0.00 in0.0 mm
05:20 PM 68.4°F20.2°C 40.4°F4.7°C 36% 3.8 mph SSE6.1 kmh SSE 9.0 mph14.5 kmh 30.30 in1026.1 mb 0.00 in0.0 mm 0.00 in0.0 mm 0.00 in0.0 mm
05:15 PM 68.8°F20.4°C 40.7°F4.8°C 36% 3.1 mph SE5.0 kmh SE 9.0 mph14.5 kmh 30.31 in1026.4 mb 0.00 in0.0 mm 0.00 in0.0 mm 0.00 in0.0 mm
05:10 PM 68.7°F20.4°C 42.1°F5.6°C 38% 3.1 mph SE5.0 kmh SE 7.0 mph11.3 kmh 30.31 in1026.4 mb 0.00 in0.0 mm 0.00 in0.0 mm 0.00 in0.0 mm
05:05 PM 68.8°F20.4°C 42.8°F6.0°C 39% 3.6 mph SE5.8 kmh SE 7.0 mph11.3 kmh 30.31 in1026.4 mb 0.00 in0.0 mm 0.00 in0.0 mm 0.00 in0.0 mm
05:00 PM 69.1°F20.6°C 42.4°F5.8°C 38% 3.3 mph SE5.3 kmh SE 7.0 mph11.3 kmh 30.31 in1026.4 mb 0.00 in0.0 mm 0.00 in0.0 mm 0.00 in0.0 mm
04:55 PM 69.1°F20.6°C 43.1°F6.2°C 39% 2.4 mph SE3.9 kmh SE 7.0 mph11.3 kmh 30.31 in1026.4 mb 0.00 in0.0 mm 0.00 in0.0 mm 0.00 in0.0 mm
04:50 PM 68.4°F20.2°C 42.5°F5.8°C 39% 2.9 mph SE4.7 kmh SE 8.0 mph12.9 kmh 30.31 in1026.4 mb 0.00 in0.0 mm 0.00 in0.0 mm 0.00 in0.0 mm
04:45 PM 68.1°F20.1°C 41.5°F5.3°C 38% 3.6 mph SSE5.8 kmh SSE 9.0 mph14.5 kmh 30.31 in1026.4 mb 0.00 in0.0 mm 0.00 in0.0 mm 0.00 in0.0 mm
04:40 PM 68.3°F20.2°C 43.7°F6.5°C 41% 3.7 mph SSE6.0 kmh SSE 9.0 mph14.5 kmh 30.31 in1026.4 mb 0.00 in0.0 mm 0.00 in0.0 mm 0.00 in0.0 mm
04:35 PM 68.5°F20.3°C 42.6°F5.9°C 39% 4.3 mph SSE6.9 kmh SSE 8.0 mph12.9 kmh 30.32 in1026.8 mb 0.00 in0.0 mm 0.00 in0.0 mm 0.00 in0.0 mm
04:30 PM 69.0°F20.6°C 44.3°F6.8°C 41% 2.2 mph ENE3.5 kmh ENE 7.0 mph11.3 kmh 30.31 in1026.4 mb 0.00 in0.0 mm 0.00 in0.0 mm 0.00 in0.0 mm
04:25 PM 68.7°F20.4°C 42.7°F5.9°C 39% 2.8 mph SE4.5 kmh SE 7.0 mph11.3 kmh 30.31 in1026.4 mb 0.00 in0.0 mm 0.00 in0.0 mm 0.00 in0.0 mm
04:20 PM 68.3°F20.2°C 44.3°F6.8°C 42% 3.4 mph SE5.5 kmh SE 9.0 mph14.5 kmh 30.31 in1026.4 mb 0.00 in0.0 mm 0.00 in0.0 mm 0.00 in0.0 mm
04:15 PM 68.0°F20.0°C 42.8°F6.0°C 40% 4.3 mph SSE6.9 kmh SSE 9.0 mph14.5 kmh 30.32 in1026.8 mb 0.00 in0.0 mm 0.00 in0.0 mm 0.00 in0.0 mm
04:10 PM 68.1°F20.1°C 44.8°F7.1°C 43% 3.2 mph SSE5.1 kmh SSE 6.0 mph9.7 kmh 30.32 in1026.8 mb 0.00 in0.0 mm 0.00 in0.0 mm 0.00 in0.0 mm
04:05 PM 68.1°F20.1°C 43.5°F6.4°C 41% 2.5 mph SE4.0 kmh SE 6.0 mph9.7 kmh 30.32 in1026.8 mb 0.00 in0.0 mm 0.00 in0.0 mm 0.00 in0.0 mm
04:00 PM 68.6°F20.3°C 44.6°F7.0°C 42% 2.6 mph SE4.2 kmh SE 7.0 mph11.3 kmh 30.32 in1026.8 mb 0.00 in0.0 mm 0.00 in0.0 mm 0.00 in0.0 mm
03:55 PM 68.1°F20.1°C 44.1°F6.7°C 42% 3.7 mph SE6.0 kmh SE 7.0 mph11.3 kmh 30.32 in1026.8 mb 0.00 in0.0 mm 0.00 in0.0 mm 0.00 in0.0 mm
03:50 PM 67.9°F19.9°C 44.6°F7.0°C 43% 3.5 mph SE5.6 kmh SE 8.0 mph12.9 kmh 30.32 in1026.8 mb 0.00 in0.0 mm 0.00 in0.0 mm 0.00 in0.0 mm
03:45 PM 67.6°F19.8°C 44.3°F6.8°C 43% 4.7 mph SSE7.6 kmh SSE 8.0 mph12.9 kmh 30.32 in1026.8 mb 0.00 in0.0 mm 0.00 in0.0 mm 0.00 in0.0 mm
03:40 PM 68.4°F20.2°C 45.0°F7.2°C 43% 3.1 mph SE5.0 kmh SE 8.0 mph12.9 kmh 30.33 in1027.1 mb 0.00 in0.0 mm 0.00 in0.0 mm 0.00 in0.0 mm
03:35 PM 67.7°F19.8°C 43.1°F6.2°C 41% 2.3 mph SSE3.7 kmh SSE 7.0 mph11.3 kmh 30.33 in1027.1 mb 0.00 in0.0 mm 0.00 in0.0 mm 0.00 in0.0 mm
03:30 PM 67.6°F19.8°C 43.1°F6.2°C 41% 3.6 mph SE5.8 kmh SE 9.0 mph14.5 kmh 30.33 in1027.1 mb 0.00 in0.0 mm 0.00 in0.0 mm 0.00 in0.0 mm
03:25 PM 67.9°F19.9°C 43.3°F6.3°C 41% 4.5 mph SE7.2 kmh SE 11.0 mph17.7 kmh 30.33 in1027.1 mb 0.00 in0.0 mm 0.00 in0.0 mm 0.00 in0.0 mm
03:20 PM 67.6°F19.8°C 42.4°F5.8°C 40% 4.4 mph SSE7.1 kmh SSE 11.0 mph17.7 kmh 30.33 in1027.1 mb 0.00 in0.0 mm 0.00 in0.0 mm 0.00 in0.0 mm
03:15 PM 67.2°F19.6°C 42.7°F5.9°C 41% 3.6 mph SSE5.8 kmh SSE 7.0 mph11.3 kmh 30.34 in1027.4 mb 0.00 in0.0 mm 0.00 in0.0 mm 0.00 in0.0 mm
03:10 PM 67.9°F19.9°C 45.2°F7.3°C 44% 2.9 mph SSE4.7 kmh SSE 9.0 mph14.5 kmh 30.34 in1027.4 mb 0.00 in0.0 mm 0.00 in0.0 mm 0.00 in0.0 mm
03:05 PM 67.0°F19.4°C 42.5°F5.8°C 41% 4.2 mph SSE6.8 kmh SSE 9.0 mph14.5 kmh 30.34 in1027.4 mb 0.00 in0.0 mm 0.00 in0.0 mm 0.00 in0.0 mm
03:00 PM 67.1°F19.5°C 44.5°F6.9°C 44% 1.7 mph SE2.7 kmh SE 8.0 mph12.9 kmh 30.34 in1027.4 mb 0.00 in0.0 mm 0.00 in0.0 mm 0.00 in0.0 mm
02:55 PM 66.8°F19.3°C 44.2°F6.8°C 44% 3.5 mph S5.6 kmh S 8.0 mph12.9 kmh 30.34 in1027.4 mb 0.00 in0.0 mm 0.00 in0.0 mm 0.00 in0.0 mm
02:50 PM 66.9°F19.4°C 43.7°F6.5°C 43% 2.9 mph SSE4.7 kmh SSE 7.0 mph11.3 kmh 30.35 in1027.8 mb 0.00 in0.0 mm 0.00 in0.0 mm 0.00 in0.0 mm
02:45 PM 66.2°F19.0°C 42.4°F5.8°C 42% 4.2 mph SSE6.8 kmh SSE 7.0 mph11.3 kmh 30.35 in1027.8 mb 0.00 in0.0 mm 0.00 in0.0 mm 0.00 in0.0 mm
02:40 PM 67.0°F19.4°C 43.1°F6.2°C 42% 3.2 mph SSE5.1 kmh SSE 7.0 mph11.3 kmh 30.35 in1027.8 mb 0.00 in0.0 mm 0.00 in0.0 mm 0.00 in0.0 mm
02:35 PM 67.1°F19.5°C 42.0°F5.6°C 40% 1.8 mph ESE2.9 kmh ESE 6.0 mph9.7 kmh 30.36 in1028.1 mb 0.00 in0.0 mm 0.00 in0.0 mm 0.00 in0.0 mm
02:30 PM 67.0°F19.4°C 43.1°F6.2°C 42% 2.1 mph SE3.4 kmh SE 6.0 mph9.7 kmh 30.36 in1028.1 mb 0.00 in0.0 mm 0.00 in0.0 mm 0.00 in0.0 mm
02:25 PM 66.9°F19.4°C 42.4°F5.8°C 41% 2.7 mph SE4.3 kmh SE 7.0 mph11.3 kmh 30.36 in1028.1 mb 0.00 in0.0 mm 0.00 in0.0 mm 0.00 in0.0 mm
02:20 PM 65.8°F18.8°C 43.3°F6.3°C 44% 2.7 mph S4.3 kmh S 7.0 mph11.3 kmh 30.37 in1028.4 mb 0.00 in0.0 mm 0.00 in0.0 mm 0.00 in0.0 mm
02:15 PM 66.4°F19.1°C 43.2°F6.2°C 43% 2.7 mph SE4.3 kmh SE 6.0 mph9.7 kmh 30.37 in1028.4 mb 0.00 in0.0 mm 0.00 in0.0 mm 0.00 in0.0 mm
02:10 PM 65.9°F18.8°C 41.5°F5.3°C 41% 3.3 mph SSE5.3 kmh SSE 8.0 mph12.9 kmh 30.37 in1028.4 mb 0.00 in0.0 mm 0.00 in0.0 mm 0.00 in0.0 mm
02:05 PM 65.8°F18.8°C 42.7°F5.9°C 43% 3.0 mph SSE4.8 kmh SSE 9.0 mph14.5 kmh 30.37 in1028.4 mb 0.00 in0.0 mm 0.00 in0.0 mm 0.00 in0.0 mm
02:00 PM 65.4°F18.6°C 43.5°F6.4°C 45% 2.8 mph SSE4.5 kmh SSE 9.0 mph14.5 kmh 30.37 in1028.4 mb 0.00 in0.0 mm 0.00 in0.0 mm 0.00 in0.0 mm
01:55 PM 65.1°F18.4°C 41.4°F5.2°C 42% 3.3 mph SSE5.3 kmh SSE 7.0 mph11.3 kmh 30.37 in1028.4 mb 0.00 in0.0 mm 0.00 in0.0 mm 0.00 in0.0 mm
01:50 PM 65.7°F18.7°C 42.6°F5.9°C 43% 2.3 mph SE3.7 kmh SE 6.0 mph9.7 kmh 30.37 in1028.4 mb 0.00 in0.0 mm 0.00 in0.0 mm 0.00 in0.0 mm
01:45 PM 65.2°F18.4°C 42.7°F5.9°C 44% 3.0 mph SSE4.8 kmh SSE 8.0 mph12.9 kmh 30.38 in1028.8 mb 0.00 in0.0 mm 0.00 in0.0 mm 0.00 in0.0 mm
01:40 PM 65.8°F18.8°C 43.3°F6.3°C 44% 2.9 mph SE4.7 kmh SE 8.0 mph12.9 kmh 30.38 in1028.8 mb 0.00 in0.0 mm 0.00 in0.0 mm 0.00 in0.0 mm
01:35 PM 65.0°F18.3°C 43.7°F6.5°C 46% 1.6 mph ESE2.6 kmh ESE 7.0 mph11.3 kmh 30.38 in1028.8 mb 0.00 in0.0 mm 0.00 in0.0 mm 0.00 in0.0 mm
01:30 PM 65.0°F18.3°C 41.3°F5.2°C 42% 3.1 mph SSE5.0 kmh SSE 8.0 mph12.9 kmh 30.38 in1028.8 mb 0.00 in0.0 mm 0.00 in0.0 mm 0.00 in0.0 mm
01:25 PM 65.6°F18.7°C 44.8°F7.1°C 47% 3.1 mph SE5.0 kmh SE 8.0 mph12.9 kmh 30.38 in1028.8 mb 0.00 in0.0 mm 0.00 in0.0 mm 0.00 in0.0 mm
01:20 PM 64.5°F18.1°C 42.1°F5.6°C 44% 2.5 mph SSE4.0 kmh SSE 5.0 mph8.0 kmh 30.38 in1028.8 mb 0.00 in0.0 mm 0.00 in0.0 mm 0.00 in0.0 mm
01:15 PM 64.3°F17.9°C 44.2°F6.8°C 48% 2.0 mph SE3.2 kmh SE 6.0 mph9.7 kmh 30.39 in1029.1 mb 0.00 in0.0 mm 0.00 in0.0 mm 0.00 in0.0 mm
01:10 PM 64.0°F17.8°C 44.5°F6.9°C 49% 2.5 mph ENE4.0 kmh ENE 6.0 mph9.7 kmh 30.39 in1029.1 mb 0.00 in0.0 mm 0.00 in0.0 mm 0.00 in0.0 mm
01:05 PM 64.0°F17.8°C 44.5°F6.9°C 49% 1.5 mph SE2.4 kmh SE 5.0 mph8.0 kmh 30.39 in1029.1 mb 0.00 in0.0 mm 0.00 in0.0 mm 0.00 in0.0 mm
01:00 PM 64.3°F17.9°C 43.6°F6.4°C 47% 2.5 mph SSE4.0 kmh SSE 5.0 mph8.0 kmh 30.39 in1029.1 mb 0.00 in0.0 mm 0.00 in0.0 mm 0.00 in0.0 mm
12:55 PM 63.3°F17.4°C 43.8°F6.6°C 49% 2.2 mph S3.5 kmh S 5.0 mph8.0 kmh 30.39 in1029.1 mb 0.00 in0.0 mm 0.00 in0.0 mm 0.00 in0.0 mm
12:50 PM 62.9°F17.2°C 42.9°F6.1°C 48% 2.0 mph SE3.2 kmh SE 9.0 mph14.5 kmh 30.40 in1029.5 mb 0.00 in0.0 mm 0.00 in0.0 mm 0.00 in0.0 mm
12:45 PM 64.0°F17.8°C 43.9°F6.6°C 48% 3.9 mph SE6.3 kmh SE 9.0 mph14.5 kmh 30.40 in1029.5 mb 0.00 in0.0 mm 0.00 in0.0 mm 0.00 in0.0 mm
12:40 PM 63.0°F17.2°C 44.1°F6.7°C 50% 2.8 mph S4.5 kmh S 8.0 mph12.9 kmh 30.40 in1029.5 mb 0.00 in0.0 mm 0.00 in0.0 mm 0.00 in0.0 mm
12:35 PM 63.2°F17.3°C 44.8°F7.1°C 51% 2.0 mph SE3.2 kmh SE 8.0 mph12.9 kmh 30.40 in1029.5 mb 0.00 in0.0 mm 0.00 in0.0 mm 0.00 in0.0 mm
12:30 PM 61.8°F16.6°C 43.0°F6.1°C 50% 2.5 mph NE4.0 kmh NE 5.0 mph8.0 kmh 30.41 in1029.8 mb 0.00 in0.0 mm 0.00 in0.0 mm 0.00 in0.0 mm
12:25 PM 61.9°F16.6°C 43.6°F6.4°C 51% 1.7 mph SE2.7 kmh SE 7.0 mph11.3 kmh 30.41 in1029.8 mb 0.00 in0.0 mm 0.00 in0.0 mm 0.00 in0.0 mm
12:20 PM 61.4°F16.3°C 43.1°F6.2°C 51% 3.0 mph NE4.8 kmh NE 8.0 mph12.9 kmh 30.41 in1029.8 mb 0.00 in0.0 mm 0.00 in0.0 mm 0.00 in0.0 mm
12:15 PM 61.7°F16.5°C 42.9°F6.1°C 50% 3.2 mph E5.1 kmh E 8.0 mph12.9 kmh 30.41 in1029.8 mb 0.00 in0.0 mm 0.00 in0.0 mm 0.00 in0.0 mm
12:10 PM 61.2°F16.2°C 43.4°F6.3°C 52% 1.5 mph E2.4 kmh E 5.0 mph8.0 kmh 30.41 in1029.8 mb 0.00 in0.0 mm 0.00 in0.0 mm 0.00 in0.0 mm
12:05 PM 61.1°F16.2°C 42.8°F6.0°C 51% 2.4 mph NE3.9 kmh NE 5.0 mph8.0 kmh 30.41 in1029.8 mb 0.00 in0.0 mm 0.00 in0.0 mm 0.00 in0.0 mm
12:00 PM 62.7°F17.1°C 43.8°F6.6°C 50% 2.5 mph SE4.0 kmh SE 5.0 mph8.0 kmh 30.41 in1029.8 mb 0.00 in0.0 mm 0.00 in0.0 mm 0.00 in0.0 mm
11:55 AM 61.4°F16.3°C 44.6°F7.0°C 54% 2.8 mph S4.5 kmh S 7.0 mph11.3 kmh 30.41 in1029.8 mb 0.00 in0.0 mm 0.00 in0.0 mm 0.00 in0.0 mm
11:50 AM 61.6°F16.4°C 43.8°F6.6°C 52% 3.1 mph SSE5.0 kmh SSE 7.0 mph11.3 kmh 30.41 in1029.8 mb 0.00 in0.0 mm 0.00 in0.0 mm 0.00 in0.0 mm
11:45 AM 61.1°F16.2°C 44.3°F6.8°C 54% 2.8 mph SSE4.5 kmh SSE 6.0 mph9.7 kmh 30.41 in1029.8 mb 0.00 in0.0 mm 0.00 in0.0 mm 0.00 in0.0 mm
11:40 AM 60.9°F16.1°C 43.7°F6.5°C 53% 2.0 mph SSE3.2 kmh SSE 7.0 mph11.3 kmh 30.41 in1029.8 mb 0.00 in0.0 mm 0.00 in0.0 mm 0.00 in0.0 mm
11:35 AM 60.7°F15.9°C 43.5°F6.4°C 53% 2.5 mph SSE4.0 kmh SSE 7.0 mph11.3 kmh 30.41 in1029.8 mb 0.00 in0.0 mm 0.00 in0.0 mm 0.00 in0.0 mm
11:30 AM 60.6°F15.9°C 42.9°F6.1°C 52% 2.3 mph SE3.7 kmh SE 7.0 mph11.3 kmh 30.41 in1029.8 mb 0.00 in0.0 mm 0.00 in0.0 mm 0.00 in0.0 mm
11:25 AM 59.9°F15.5°C 42.7°F5.9°C 53% 2.7 mph S4.3 kmh S 7.0 mph11.3 kmh 30.41 in1029.8 mb 0.00 in0.0 mm 0.00 in0.0 mm 0.00 in0.0 mm
11:20 AM 59.6°F15.3°C 43.4°F6.3°C 55% 3.1 mph SSE5.0 kmh SSE 5.0 mph8.0 kmh 30.41 in1029.8 mb 0.00 in0.0 mm 0.00 in0.0 mm 0.00 in0.0 mm
11:15 AM 59.9°F15.5°C 44.2°F6.8°C 56% 2.6 mph SSE4.2 kmh SSE 6.0 mph9.7 kmh 30.41 in1029.8 mb 0.00 in0.0 mm 0.00 in0.0 mm 0.00 in0.0 mm
11:10 AM 59.6°F15.3°C 42.9°F6.1°C 54% 3.4 mph SSE5.5 kmh SSE 6.0 mph9.7 kmh 30.41 in1029.8 mb 0.00 in0.0 mm 0.00 in0.0 mm 0.00 in0.0 mm
11:05 AM 60.0°F15.6°C 43.3°F6.3°C 54% 2.8 mph SE4.5 kmh SE 6.0 mph9.7 kmh 30.41 in1029.8 mb 0.00 in0.0 mm 0.00 in0.0 mm 0.00 in0.0 mm
11:00 AM 59.4°F15.2°C 44.6°F7.0°C 58% 2.5 mph SE4.0 kmh SE 8.0 mph12.9 kmh 30.41 in1029.8 mb 0.00 in0.0 mm 0.00 in0.0 mm 0.00 in0.0 mm
10:55 AM 59.5°F15.3°C 43.8°F6.6°C 56% 3.3 mph SE5.3 kmh SE 8.0 mph12.9 kmh 30.41 in1029.8 mb 0.00 in0.0 mm 0.00 in0.0 mm 0.00 in0.0 mm
10:50 AM 59.4°F15.2°C 43.7°F6.5°C 56% 2.5 mph SE4.0 kmh SE 5.0 mph8.0 kmh 30.41 in1029.8 mb 0.00 in0.0 mm 0.00 in0.0 mm 0.00 in0.0 mm
10:45 AM 59.4°F15.2°C 43.7°F6.5°C 56% 2.0 mph SE3.2 kmh SE 5.0 mph8.0 kmh 30.41 in1029.8 mb 0.00 in0.0 mm 0.00 in0.0 mm 0.00 in0.0 mm
10:40 AM 59.0°F15.0°C 43.8°F6.6°C 57% 2.4 mph SE3.9 kmh SE 7.0 mph11.3 kmh 30.41 in1029.8 mb 0.00 in0.0 mm 0.00 in0.0 mm 0.00 in0.0 mm
10:35 AM 58.6°F14.8°C 43.0°F6.1°C 56% 3.0 mph SE4.8 kmh SE 7.0 mph11.3 kmh 30.41 in1029.8 mb 0.00 in0.0 mm 0.00 in0.0 mm 0.00 in0.0 mm
10:30 AM 58.6°F14.8°C 43.0°F6.1°C 56% 3.2 mph SE5.1 kmh SE 7.0 mph11.3 kmh 30.41 in1029.8 mb 0.00 in0.0 mm 0.00 in0.0 mm 0.00 in0.0 mm
10:25 AM 58.2°F14.6°C 43.5°F6.4°C 58% 3.9 mph SE6.3 kmh SE 7.0 mph11.3 kmh 30.41 in1029.8 mb 0.00 in0.0 mm 0.00 in0.0 mm 0.00 in0.0 mm
10:20 AM 58.6°F14.8°C 43.4°F6.3°C 57% 3.2 mph SE5.1 kmh SE 7.0 mph11.3 kmh 30.41 in1029.8 mb 0.00 in0.0 mm 0.00 in0.0 mm 0.00 in0.0 mm
10:15 AM 58.0°F14.4°C 42.9°F6.1°C 57% 2.9 mph SE4.7 kmh SE 9.0 mph14.5 kmh 30.41 in1029.8 mb 0.00 in0.0 mm 0.00 in0.0 mm 0.00 in0.0 mm
10:10 AM 57.5°F14.2°C 42.4°F5.8°C 57% 4.2 mph SE6.8 kmh SE 10.0 mph16.1 kmh 30.41 in1029.8 mb 0.00 in0.0 mm 0.00 in0.0 mm 0.00 in0.0 mm
10:05 AM 57.5°F14.2°C 42.8°F6.0°C 58% 4.7 mph SE7.6 kmh SE 10.0 mph16.1 kmh 30.41 in1029.8 mb 0.00 in0.0 mm 0.00 in0.0 mm 0.00 in0.0 mm
10:00 AM 57.5°F14.2°C 42.8°F6.0°C 58% 3.8 mph SE6.1 kmh SE 8.0 mph12.9 kmh 30.41 in1029.8 mb 0.00 in0.0 mm 0.00 in0.0 mm 0.00 in0.0 mm
09:55 AM 57.3°F14.1°C 42.7°F5.9°C 58% 3.8 mph SE6.1 kmh SE 9.0 mph14.5 kmh 30.41 in1029.8 mb 0.00 in0.0 mm 0.00 in0.0 mm 0.00 in0.0 mm
09:50 AM 57.2°F14.0°C 42.6°F5.9°C 58% 4.2 mph SE6.8 kmh SE 9.0 mph14.5 kmh 30.40 in1029.5 mb 0.00 in0.0 mm 0.00 in0.0 mm 0.00 in0.0 mm
09:45 AM 57.1°F13.9°C 42.5°F5.8°C 58% 4.4 mph SE7.1 kmh SE 8.0 mph12.9 kmh 30.40 in1029.5 mb 0.00 in0.0 mm 0.00 in0.0 mm 0.00 in0.0 mm
09:40 AM 57.1°F13.9°C 42.9°F6.1°C 59% 2.9 mph ESE4.7 kmh ESE 7.0 mph11.3 kmh 30.40 in1029.5 mb 0.00 in0.0 mm 0.00 in0.0 mm 0.00 in0.0 mm
09:35 AM 56.6°F13.7°C 43.7°F6.5°C 62% 3.5 mph SE5.6 kmh SE 7.0 mph11.3 kmh 30.40 in1029.5 mb 0.00 in0.0 mm 0.00 in0.0 mm 0.00 in0.0 mm
09:30 AM 56.4°F13.6°C 43.5°F6.4°C 62% 2.5 mph ESE4.0 kmh ESE 7.0 mph11.3 kmh 30.40 in1029.5 mb 0.00 in0.0 mm 0.00 in0.0 mm 0.00 in0.0 mm
09:25 AM 56.1°F13.4°C 44.1°F6.7°C 64% 2.6 mph SE4.2 kmh SE 7.0 mph11.3 kmh 30.40 in1029.5 mb 0.00 in0.0 mm 0.00 in0.0 mm 0.00 in0.0 mm
09:20 AM 55.4°F13.0°C 43.4°F6.3°C 64% 2.6 mph SE4.2 kmh SE 7.0 mph11.3 kmh 30.40 in1029.5 mb 0.00 in0.0 mm 0.00 in0.0 mm 0.00 in0.0 mm
09:15 AM 55.1°F12.8°C 43.5°F6.4°C 65% 2.6 mph SE4.2 kmh SE 6.0 mph9.7 kmh 30.40 in1029.5 mb 0.00 in0.0 mm 0.00 in0.0 mm 0.00 in0.0 mm
09:10 AM 54.8°F12.7°C 44.1°F6.7°C 67% 2.7 mph SE4.3 kmh SE 7.0 mph11.3 kmh 30.40 in1029.5 mb 0.00 in0.0 mm 0.00 in0.0 mm 0.00 in0.0 mm
09:05 AM 54.7°F12.6°C 43.6°F6.4°C 66% 2.1 mph SE3.4 kmh SE 7.0 mph11.3 kmh 30.40 in1029.5 mb 0.00 in0.0 mm 0.00 in0.0 mm 0.00 in0.0 mm
09:00 AM 54.3°F12.4°C 43.6°F6.4°C 67% 2.5 mph ESE4.0 kmh ESE 6.0 mph9.7 kmh 30.40 in1029.5 mb 0.00 in0.0 mm 0.00 in0.0 mm 0.00 in0.0 mm
08:55 AM 54.0°F12.2°C 43.7°F6.5°C 68% 1.9 mph SE3.1 kmh SE 5.0 mph8.0 kmh 30.39 in1029.1 mb 0.00 in0.0 mm 0.00 in0.0 mm 0.00 in0.0 mm
08:50 AM 53.7°F12.1°C 43.8°F6.6°C 69% 1.3 mph ESE2.1 kmh ESE 3.0 mph4.8 kmh 30.39 in1029.1 mb 0.00 in0.0 mm 0.00 in0.0 mm 0.00 in0.0 mm
08:45 AM 53.3°F11.8°C 43.4°F6.3°C 69% 1.2 mph SE1.9 kmh SE 3.0 mph4.8 kmh 30.39 in1029.1 mb 0.00 in0.0 mm 0.00 in0.0 mm 0.00 in0.0 mm
08:40 AM 52.9°F11.6°C 43.8°F6.6°C 71% 0.5 mph E0.8 kmh E 3.0 mph4.8 kmh 30.39 in1029.1 mb 0.00 in0.0 mm 0.00 in0.0 mm 0.00 in0.0 mm
08:35 AM 52.4°F11.3°C 43.3°F6.3°C 71% 1.0 mph SE1.6 kmh SE 3.0 mph4.8 kmh 30.39 in1029.1 mb 0.00 in0.0 mm 0.00 in0.0 mm 0.00 in0.0 mm
08:30 AM 52.3°F11.3°C 43.2°F6.2°C 71% 0.6 mph ESE1.0 kmh ESE 2.0 mph3.2 kmh 30.39 in1029.1 mb 0.00 in0.0 mm 0.00 in0.0 mm 0.00 in0.0 mm
08:25 AM 51.7°F10.9°C 43.0°F6.1°C 72% 0.3 mph E0.5 kmh E 2.0 mph3.2 kmh 30.38 in1028.8 mb 0.00 in0.0 mm 0.00 in0.0 mm 0.00 in0.0 mm
08:20 AM 51.5°F10.8°C 43.1°F6.2°C 73% 0.1 mph E0.2 kmh E 2.0 mph3.2 kmh 30.38 in1028.8 mb 0.00 in0.0 mm 0.00 in0.0 mm 0.00 in0.0 mm
08:15 AM 51.0°F10.6°C 42.7°F5.9°C 73% 0.5 mph E0.8 kmh E 3.0 mph4.8 kmh 30.38 in1028.8 mb 0.00 in0.0 mm 0.00 in0.0 mm 0.00 in0.0 mm
08:10 AM 50.6°F10.3°C 42.3°F5.7°C 73% 0.5 mph E0.8 kmh E 3.0 mph4.8 kmh 30.38 in1028.8 mb 0.00 in0.0 mm 0.00 in0.0 mm 0.00 in0.0 mm
08:05 AM 50.3°F10.2°C 42.3°F5.7°C 74% 0.6 mph ENE1.0 kmh ENE 2.0 mph3.2 kmh 30.38 in1028.8 mb 0.00 in0.0 mm 0.00 in0.0 mm 0.00 in0.0 mm
08:00 AM 49.9°F9.9°C 41.9°F5.5°C 74% 0.1 mph ENE0.2 kmh ENE 2.0 mph3.2 kmh 30.37 in1028.4 mb 0.00 in0.0 mm 0.00 in0.0 mm 0.00 in0.0 mm
07:55 AM 49.6°F9.8°C 41.7°F5.4°C 74% 0.3 mph ENE0.5 kmh ENE 2.0 mph3.2 kmh 30.37 in1028.4 mb 0.00 in0.0 mm 0.00 in0.0 mm 0.00 in0.0 mm
07:50 AM 49.4°F9.7°C 41.5°F5.3°C 74% 0.5 mph ENE0.8 kmh ENE 2.0 mph3.2 kmh 30.37 in1028.4 mb 0.00 in0.0 mm 0.00 in0.0 mm 0.00 in0.0 mm
07:45 AM 49.2°F9.6°C 41.3°F5.2°C 74% 0.1 mph ENE0.2 kmh ENE 2.0 mph3.2 kmh 30.37 in1028.4 mb 0.00 in0.0 mm 0.00 in0.0 mm 0.00 in0.0 mm
07:40 AM 49.2°F9.6°C 41.3°F5.2°C 74% 0.2 mph ENE0.3 kmh ENE 2.0 mph3.2 kmh 30.37 in1028.4 mb 0.00 in0.0 mm 0.00 in0.0 mm 0.00 in0.0 mm
07:35 AM 49.4°F9.7°C 41.5°F5.3°C 74% 0.5 mph ENE0.8 kmh ENE 3.0 mph4.8 kmh 30.37 in1028.4 mb 0.00 in0.0 mm 0.00 in0.0 mm 0.00 in0.0 mm
07:30 AM 49.3°F9.6°C 41.4°F5.2°C 74% 1.3 mph ENE2.1 kmh ENE 3.0 mph4.8 kmh 30.36 in1028.1 mb 0.00 in0.0 mm 0.00 in0.0 mm 0.00 in0.0 mm
07:25 AM 49.3°F9.6°C 41.0°F5.0°C 73% 1.1 mph ENE1.8 kmh ENE 2.0 mph3.2 kmh 30.36 in1028.1 mb 0.00 in0.0 mm 0.00 in0.0 mm 0.00 in0.0 mm
07:20 AM 49.5°F9.7°C 41.2°F5.1°C 73% 0.9 mph ENE1.4 kmh ENE 3.0 mph4.8 kmh 30.36 in1028.1 mb 0.00 in0.0 mm 0.00 in0.0 mm 0.00 in0.0 mm
07:15 AM 49.4°F9.7°C 41.1°F5.1°C 73% 1.4 mph ENE2.3 kmh ENE 3.0 mph4.8 kmh 30.36 in1028.1 mb 0.00 in0.0 mm 0.00 in0.0 mm 0.00 in0.0 mm
07:10 AM 49.4°F9.7°C 41.5°F5.3°C 74% 1.2 mph ENE1.9 kmh ENE 3.0 mph4.8 kmh 30.36 in1028.1 mb 0.00 in0.0 mm 0.00 in0.0 mm 0.00 in0.0 mm
07:05 AM 49.4°F9.7°C 41.5°F5.3°C 74% 1.1 mph ENE1.8 kmh ENE 2.0 mph3.2 kmh 30.36 in1028.1 mb 0.00 in0.0 mm 0.00 in0.0 mm 0.00 in0.0 mm
07:00 AM 49.3°F9.6°C 41.4°F5.2°C 74% 0.6 mph ENE1.0 kmh ENE 2.0 mph3.2 kmh 30.35 in1027.8 mb 0.00 in0.0 mm 0.00 in0.0 mm 0.00 in0.0 mm
06:55 AM 49.4°F9.7°C 41.1°F5.1°C 73% 0.7 mph ENE1.1 kmh ENE 3.0 mph4.8 kmh 30.35 in1027.8 mb 0.00 in0.0 mm 0.00 in0.0 mm 0.00 in0.0 mm
06:50 AM 49.5°F9.7°C 41.2°F5.1°C 73% 1.2 mph ENE1.9 kmh ENE 3.0 mph4.8 kmh 30.35 in1027.8 mb 0.00 in0.0 mm 0.00 in0.0 mm 0.00 in0.0 mm
06:45 AM 49.4°F9.7°C 41.1°F5.1°C 73% 1.1 mph ENE1.8 kmh ENE 2.0 mph3.2 kmh 30.35 in1027.8 mb 0.00 in0.0 mm 0.00 in0.0 mm 0.00 in0.0 mm
06:40 AM 49.3°F9.6°C 41.4°F5.2°C 74% 0.5 mph ENE0.8 kmh ENE 2.0 mph3.2 kmh 30.34 in1027.4 mb 0.00 in0.0 mm 0.00 in0.0 mm 0.00 in0.0 mm
06:35 AM 49.2°F9.6°C 40.9°F4.9°C 73% 0.8 mph ENE1.3 kmh ENE 2.0 mph3.2 kmh 30.34 in1027.4 mb 0.00 in0.0 mm 0.00 in0.0 mm 0.00 in0.0 mm
06:30 AM 49.3°F9.6°C 41.0°F5.0°C 73% 1.3 mph ENE2.1 kmh ENE 2.0 mph3.2 kmh 30.34 in1027.4 mb 0.00 in0.0 mm 0.00 in0.0 mm 0.00 in0.0 mm
06:25 AM 49.4°F9.7°C 41.1°F5.1°C 73% 0.9 mph ENE1.4 kmh ENE 2.0 mph3.2 kmh 30.34 in1027.4 mb 0.00 in0.0 mm 0.00 in0.0 mm 0.00 in0.0 mm
06:20 AM 49.4°F9.7°C 41.1°F5.1°C 73% 0.4 mph ENE0.6 kmh ENE 2.0 mph3.2 kmh 30.34 in1027.4 mb 0.00 in0.0 mm 0.00 in0.0 mm 0.00 in0.0 mm
06:15 AM 49.5°F9.7°C 41.2°F5.1°C 73% 0.6 mph ENE1.0 kmh ENE 2.0 mph3.2 kmh 30.34 in1027.4 mb 0.00 in0.0 mm 0.00 in0.0 mm 0.00 in0.0 mm
06:10 AM 49.5°F9.7°C 40.9°F4.9°C 72% 0.1 mph ENE0.2 kmh ENE 1.0 mph1.6 kmh 30.34 in1027.4 mb 0.00 in0.0 mm 0.00 in0.0 mm 0.00 in0.0 mm
06:05 AM 49.6°F9.8°C 40.9°F4.9°C 72% Calm Calm -- 30.33 in1027.1 mb 0.00 in0.0 mm 0.00 in0.0 mm 0.00 in0.0 mm
06:00 AM 49.6°F9.8°C 40.9°F4.9°C 72% Calm Calm 1.0 mph1.6 kmh 30.33 in1027.1 mb 0.00 in0.0 mm 0.00 in0.0 mm 0.00 in0.0 mm
05:55 AM 50.0°F10.0°C 41.0°F5.0°C 71% 0.3 mph ENE0.5 kmh ENE 2.0 mph3.2 kmh 30.33 in1027.1 mb 0.00 in0.0 mm 0.00 in0.0 mm 0.00 in0.0 mm
05:50 AM 50.2°F10.1°C 41.2°F5.1°C 71% 0.8 mph ENE1.3 kmh ENE 2.0 mph3.2 kmh 30.33 in1027.1 mb 0.00 in0.0 mm 0.00 in0.0 mm 0.00 in0.0 mm
05:45 AM 50.3°F10.2°C 41.3°F5.2°C 71% 0.6 mph ENE1.0 kmh ENE 2.0 mph3.2 kmh 30.33 in1027.1 mb 0.00 in0.0 mm 0.00 in0.0 mm 0.00 in0.0 mm
05:40 AM 50.5°F10.3°C 41.5°F5.3°C 71% 0.3 mph ENE0.5 kmh ENE 2.0 mph3.2 kmh 30.32 in1026.8 mb 0.00 in0.0 mm 0.00 in0.0 mm 0.00 in0.0 mm
05:35 AM 50.7°F10.4°C 41.6°F5.3°C 71% 0.4 mph ENE0.6 kmh ENE 2.0 mph3.2 kmh 30.32 in1026.8 mb 0.00 in0.0 mm 0.00 in0.0 mm 0.00 in0.0 mm
05:30 AM 50.8°F10.4°C 41.4°F5.2°C 70% 1.1 mph ENE1.8 kmh ENE 2.0 mph3.2 kmh 30.32 in1026.8 mb 0.00 in0.0 mm 0.00 in0.0 mm 0.00 in0.0 mm
05:25 AM 50.8°F10.4°C 41.7°F5.4°C 71% 1.0 mph ENE1.6 kmh ENE 3.0 mph4.8 kmh 30.32 in1026.8 mb 0.00 in0.0 mm 0.00 in0.0 mm 0.00 in0.0 mm
05:20 AM 50.7°F10.4°C 41.6°F5.3°C 71% 0.5 mph E0.8 kmh E 3.0 mph4.8 kmh 30.32 in1026.8 mb 0.00 in0.0 mm 0.00 in0.0 mm 0.00 in0.0 mm
05:15 AM 50.8°F10.4°C 41.7°F5.4°C 71% 0.3 mph E0.5 kmh E 2.0 mph3.2 kmh 30.32 in1026.8 mb 0.00 in0.0 mm 0.00 in0.0 mm 0.00 in0.0 mm
05:10 AM 50.8°F10.4°C 41.4°F5.2°C 70% 0.4 mph E0.6 kmh E 2.0 mph3.2 kmh 30.32 in1026.8 mb 0.00 in0.0 mm 0.00 in0.0 mm 0.00 in0.0 mm
05:05 AM 51.0°F10.6°C 41.6°F5.3°C 70% 0.3 mph ENE0.5 kmh ENE 2.0 mph3.2 kmh 30.31 in1026.4 mb 0.00 in0.0 mm 0.00 in0.0 mm 0.00 in0.0 mm
05:00 AM 51.2°F10.7°C 41.8°F5.4°C 70% 0.2 mph E0.3 kmh E 2.0 mph3.2 kmh 30.31 in1026.4 mb 0.00 in0.0 mm 0.00 in0.0 mm 0.00 in0.0 mm
04:55 AM 51.6°F10.9°C 41.8°F5.4°C 69% 0.3 mph E0.5 kmh E 3.0 mph4.8 kmh 30.31 in1026.4 mb 0.00 in0.0 mm 0.00 in0.0 mm 0.00 in0.0 mm
04:50 AM 51.7°F10.9°C 41.9°F5.5°C 69% 0.7 mph E1.1 kmh E 4.0 mph6.4 kmh 30.31 in1026.4 mb 0.00 in0.0 mm 0.00 in0.0 mm 0.00 in0.0 mm
04:45 AM 51.9°F11.1°C 42.1°F5.6°C 69% 0.4 mph E0.6 kmh E 4.0 mph6.4 kmh 30.31 in1026.4 mb 0.00 in0.0 mm 0.00 in0.0 mm 0.00 in0.0 mm
04:40 AM 52.2°F11.2°C 42.0°F5.6°C 68% 0.7 mph SE1.1 kmh SE 4.0 mph6.4 kmh 30.31 in1026.4 mb 0.00 in0.0 mm 0.00 in0.0 mm 0.00 in0.0 mm
04:35 AM 52.3°F11.3°C 42.1°F5.6°C 68% 1.0 mph ESE1.6 kmh ESE 4.0 mph6.4 kmh 30.31 in1026.4 mb 0.00 in0.0 mm 0.00 in0.0 mm 0.00 in0.0 mm
04:30 AM 52.4°F11.3°C 42.2°F5.7°C 68% 1.2 mph ESE1.9 kmh ESE 4.0 mph6.4 kmh 30.32 in1026.8 mb 0.00 in0.0 mm 0.00 in0.0 mm 0.00 in0.0 mm
04:25 AM 52.4°F11.3°C 42.2°F5.7°C 68% 0.9 mph ESE1.4 kmh ESE 4.0 mph6.4 kmh 30.31 in1026.4 mb 0.00 in0.0 mm 0.00 in0.0 mm 0.00 in0.0 mm
04:20 AM 52.4°F11.3°C 42.2°F5.7°C 68% 0.8 mph ESE1.3 kmh ESE 2.0 mph3.2 kmh 30.31 in1026.4 mb 0.00 in0.0 mm 0.00 in0.0 mm 0.00 in0.0 mm
04:15 AM 52.4°F11.3°C 42.2°F5.7°C 68% 0.4 mph SSE0.6 kmh SSE 2.0 mph3.2 kmh 30.31 in1026.4 mb 0.00 in0.0 mm 0.00 in0.0 mm 0.00 in0.0 mm
04:10 AM 52.6°F11.4°C 42.3°F5.7°C 68% 0.4 mph E0.6 kmh E 2.0 mph3.2 kmh 30.32 in1026.8 mb 0.00 in0.0 mm 0.00 in0.0 mm 0.00 in0.0 mm
04:05 AM 52.7°F11.5°C 42.4°F5.8°C 68% 0.5 mph SE0.8 kmh SE 2.0 mph3.2 kmh 30.32 in1026.8 mb 0.00 in0.0 mm 0.00 in0.0 mm 0.00 in0.0 mm
04:00 AM 52.8°F11.6°C 42.1°F5.6°C 67% 0.8 mph E1.3 kmh E 3.0 mph4.8 kmh 30.32 in1026.8 mb 0.00 in0.0 mm 0.00 in0.0 mm 0.00 in0.0 mm
03:55 AM 52.9°F11.6°C 42.2°F5.7°C 67% 0.9 mph SE1.4 kmh SE 3.0 mph4.8 kmh 30.32 in1026.8 mb 0.00 in0.0 mm 0.00 in0.0 mm 0.00 in0.0 mm
03:50 AM 52.9°F11.6°C 42.2°F5.7°C 67% 1.1 mph SE1.8 kmh SE 5.0 mph8.0 kmh 30.32 in1026.8 mb 0.00 in0.0 mm 0.00 in0.0 mm 0.00 in0.0 mm
03:45 AM 53.1°F11.7°C 42.4°F5.8°C 67% 1.6 mph SE2.6 kmh SE 5.0 mph8.0 kmh 30.32 in1026.8 mb 0.00 in0.0 mm 0.00 in0.0 mm 0.00 in0.0 mm
03:40 AM 53.1°F11.7°C 42.4°F5.8°C 67% 2.0 mph SE3.2 kmh SE 3.0 mph4.8 kmh 30.32 in1026.8 mb 0.00 in0.0 mm 0.00 in0.0 mm 0.00 in0.0 mm
03:35 AM 52.9°F11.6°C 42.2°F5.7°C 67% 1.1 mph ESE1.8 kmh ESE 5.0 mph8.0 kmh 30.32 in1026.8 mb 0.00 in0.0 mm 0.00 in0.0 mm 0.00 in0.0 mm
03:30 AM 53.1°F11.7°C 42.4°F5.8°C 67% 1.1 mph ESE1.8 kmh ESE 5.0 mph8.0 kmh 30.32 in1026.8 mb 0.00 in0.0 mm 0.00 in0.0 mm 0.00 in0.0 mm
03:25 AM 53.3°F11.8°C 42.6°F5.9°C 67% 1.9 mph SE3.1 kmh SE 5.0 mph8.0 kmh 30.32 in1026.8 mb 0.00 in0.0 mm 0.00 in0.0 mm 0.00 in0.0 mm
03:20 AM 53.3°F11.8°C 42.6°F5.9°C 67% 1.2 mph ESE1.9 kmh ESE 5.0 mph8.0 kmh 30.32 in1026.8 mb 0.00 in0.0 mm 0.00 in0.0 mm 0.00 in0.0 mm
03:15 AM 53.3°F11.8°C 42.6°F5.9°C 67% 1.0 mph SE1.6 kmh SE 3.0 mph4.8 kmh 30.32 in1026.8 mb 0.00 in0.0 mm 0.00 in0.0 mm 0.00 in0.0 mm
03:10 AM 53.4°F11.9°C 42.3°F5.7°C 66% 1.0 mph SE1.6 kmh SE 3.0 mph4.8 kmh 30.32 in1026.8 mb 0.00 in0.0 mm 0.00 in0.0 mm 0.00 in0.0 mm
03:05 AM 53.5°F11.9°C 42.4°F5.8°C 66% 1.5 mph ESE2.4 kmh ESE 3.0 mph4.8 kmh 30.32 in1026.8 mb 0.00 in0.0 mm 0.00 in0.0 mm 0.00 in0.0 mm
03:00 AM 53.5°F11.9°C 42.4°F5.8°C 66% 1.6 mph SE2.6 kmh SE 3.0 mph4.8 kmh 30.32 in1026.8 mb 0.00 in0.0 mm 0.00 in0.0 mm 0.00 in0.0 mm
02:55 AM 53.6°F12.0°C 42.5°F5.8°C 66% 1.3 mph ESE2.1 kmh ESE 3.0 mph4.8 kmh 30.32 in1026.8 mb 0.00 in0.0 mm 0.00 in0.0 mm 0.00 in0.0 mm
02:50 AM 53.7°F12.1°C 42.6°F5.9°C 66% 1.2 mph SE1.9 kmh SE 4.0 mph6.4 kmh 30.31 in1026.4 mb 0.00 in0.0 mm 0.00 in0.0 mm 0.00 in0.0 mm
02:45 AM 53.8°F12.1°C 42.7°F5.9°C 66% 1.4 mph SE2.3 kmh SE 4.0 mph6.4 kmh 30.31 in1026.4 mb 0.00 in0.0 mm 0.00 in0.0 mm 0.00 in0.0 mm
02:40 AM 53.9°F12.2°C 42.8°F6.0°C 66% 1.2 mph ESE1.9 kmh ESE 3.0 mph4.8 kmh 30.31 in1026.4 mb 0.00 in0.0 mm 0.00 in0.0 mm 0.00 in0.0 mm
02:35 AM 54.1°F12.3°C 43.0°F6.1°C 66% 1.3 mph SE2.1 kmh SE 4.0 mph6.4 kmh 30.31 in1026.4 mb 0.00 in0.0 mm 0.00 in0.0 mm 0.00 in0.0 mm
02:30 AM 54.2°F12.3°C 43.1°F6.2°C 66% 1.6 mph SE2.6 kmh SE 4.0 mph6.4 kmh 30.31 in1026.4 mb 0.00 in0.0 mm 0.00 in0.0 mm 0.00 in0.0 mm
02:25 AM 54.6°F12.6°C 43.1°F6.2°C 65% 1.9 mph SE3.1 kmh SE 5.0 mph8.0 kmh 30.31 in1026.4 mb 0.00 in0.0 mm 0.00 in0.0 mm 0.00 in0.0 mm
02:20 AM 54.7°F12.6°C 43.2°F6.2°C 65% 1.8 mph SE2.9 kmh SE 4.0 mph6.4 kmh 30.31 in1026.4 mb 0.00 in0.0 mm 0.00 in0.0 mm 0.00 in0.0 mm
02:15 AM 54.8°F12.7°C 43.3°F6.3°C 65% 1.9 mph SE3.1 kmh SE 4.0 mph6.4 kmh 30.31 in1026.4 mb 0.00 in0.0 mm 0.00 in0.0 mm 0.00 in0.0 mm
02:10 AM 54.8°F12.7°C 43.3°F6.3°C 65% 1.5 mph SE2.4 kmh SE 4.0 mph6.4 kmh 30.31 in1026.4 mb 0.00 in0.0 mm 0.00 in0.0 mm 0.00 in0.0 mm
02:05 AM 54.9°F12.7°C 43.4°F6.3°C 65% 1.8 mph SE2.9 kmh SE 5.0 mph8.0 kmh 30.31 in1026.4 mb 0.00 in0.0 mm 0.00 in0.0 mm 0.00 in0.0 mm
02:00 AM 55.0°F12.8°C 43.5°F6.4°C 65% 1.9 mph SE3.1 kmh SE 5.0 mph8.0 kmh 30.32 in1026.8 mb 0.00 in0.0 mm 0.00 in0.0 mm 0.00 in0.0 mm
01:55 AM 55.1°F12.8°C 43.5°F6.4°C 65% 2.0 mph SE3.2 kmh SE 5.0 mph8.0 kmh 30.32 in1026.8 mb 0.00 in0.0 mm 0.00 in0.0 mm 0.00 in0.0 mm
01:50 AM 55.3°F12.9°C 43.3°F6.3°C 64% 2.0 mph SE3.2 kmh SE 5.0 mph8.0 kmh 30.32 in1026.8 mb 0.00 in0.0 mm 0.00 in0.0 mm 0.00 in0.0 mm
01:45 AM 55.5°F13.1°C 43.5°F6.4°C 64% 1.9 mph SE3.1 kmh SE 6.0 mph9.7 kmh 30.31 in1026.4 mb 0.00 in0.0 mm 0.00 in0.0 mm 0.00 in0.0 mm
01:40 AM 55.8°F13.2°C 43.4°F6.3°C 63% 2.3 mph SE3.7 kmh SE 8.0 mph12.9 kmh 30.31 in1026.4 mb 0.00 in0.0 mm 0.00 in0.0 mm 0.00 in0.0 mm
01:35 AM 56.0°F13.3°C 43.6°F6.4°C 63% 3.5 mph SE5.6 kmh SE 8.0 mph12.9 kmh 30.31 in1026.4 mb 0.00 in0.0 mm 0.00 in0.0 mm 0.00 in0.0 mm
01:30 AM 56.1°F13.4°C 43.3°F6.3°C 62% 3.5 mph SE5.6 kmh SE 7.0 mph11.3 kmh 30.31 in1026.4 mb 0.00 in0.0 mm 0.00 in0.0 mm 0.00 in0.0 mm
01:25 AM 56.2°F13.4°C 43.4°F6.3°C 62% 2.7 mph SE4.3 kmh SE 8.0 mph12.9 kmh 30.31 in1026.4 mb 0.00 in0.0 mm 0.00 in0.0 mm 0.00 in0.0 mm
01:20 AM 56.4°F13.6°C 43.5°F6.4°C 62% 3.1 mph SE5.0 kmh SE 8.0 mph12.9 kmh 30.31 in1026.4 mb 0.00 in0.0 mm 0.00 in0.0 mm 0.00 in0.0 mm
01:15 AM 56.6°F13.7°C 43.7°F6.5°C 62% 2.8 mph SE4.5 kmh SE 8.0 mph12.9 kmh 30.31 in1026.4 mb 0.00 in0.0 mm 0.00 in0.0 mm 0.00 in0.0 mm
01:10 AM 56.8°F13.8°C 43.9°F6.6°C 62% 3.5 mph SE5.6 kmh SE 8.0 mph12.9 kmh 30.31 in1026.4 mb 0.00 in0.0 mm 0.00 in0.0 mm 0.00 in0.0 mm
01:05 AM 57.0°F13.9°C 44.1°F6.7°C 62% 2.7 mph SE4.3 kmh SE 9.0 mph14.5 kmh 30.31 in1026.4 mb 0.00 in0.0 mm 0.00 in0.0 mm 0.00 in0.0 mm
01:00 AM 57.2°F14.0°C 43.9°F6.6°C 61% 3.8 mph SE6.1 kmh SE 9.0 mph14.5 kmh 30.31 in1026.4 mb 0.00 in0.0 mm 0.00 in0.0 mm 0.00 in0.0 mm
12:55 AM 57.3°F14.1°C 44.0°F6.7°C 61% 3.6 mph SE5.8 kmh SE 8.0 mph12.9 kmh 30.31 in1026.4 mb 0.00 in0.0 mm 0.00 in0.0 mm 0.00 in0.0 mm
12:50 AM 57.3°F14.1°C 44.4°F6.9°C 62% 3.1 mph ESE5.0 kmh ESE 10.0 mph16.1 kmh 30.30 in1026.1 mb 0.00 in0.0 mm 0.00 in0.0 mm 0.00 in0.0 mm
12:45 AM 57.4°F14.1°C 44.1°F6.7°C 61% 3.8 mph SE6.1 kmh SE 10.0 mph16.1 kmh 30.30 in1026.1 mb 0.00 in0.0 mm 0.00 in0.0 mm 0.00 in0.0 mm
12:40 AM 57.7°F14.3°C 43.9°F6.6°C 60% 3.1 mph SE5.0 kmh SE 7.0 mph11.3 kmh 30.30 in1026.1 mb 0.00 in0.0 mm 0.00 in0.0 mm 0.00 in0.0 mm
12:35 AM 57.9°F14.4°C 44.1°F6.7°C 60% 3.4 mph SE5.5 kmh SE 10.0 mph16.1 kmh 30.30 in1026.1 mb 0.00 in0.0 mm 0.00 in0.0 mm 0.00 in0.0 mm
12:30 AM 58.1°F14.5°C 44.3°F6.8°C 60% 3.5 mph SE5.6 kmh SE 10.0 mph16.1 kmh 30.30 in1026.1 mb 0.00 in0.0 mm 0.00 in0.0 mm 0.00 in0.0 mm
12:25 AM 58.1°F14.5°C 44.3°F6.8°C 60% 3.2 mph SE5.1 kmh SE 7.0 mph11.3 kmh 30.30 in1026.1 mb 0.00 in0.0 mm 0.00 in0.0 mm 0.00 in0.0 mm
12:20 AM 58.3°F14.6°C 44.9°F7.2°C 61% 2.2 mph SE3.5 kmh SE 6.0 mph9.7 kmh 30.30 in1026.1 mb 0.00 in0.0 mm 0.00 in0.0 mm 0.00 in0.0 mm
12:15 AM 58.4°F14.7°C 44.6°F7.0°C 60% 3.0 mph SE4.8 kmh SE 6.0 mph9.7 kmh 30.30 in1026.1 mb 0.00 in0.0 mm 0.00 in0.0 mm 0.00 in0.0 mm
12:10 AM 58.5°F14.7°C 44.7°F7.1°C 60% 2.0 mph ESE3.2 kmh ESE 6.0 mph9.7 kmh 30.30 in1026.1 mb 0.00 in0.0 mm 0.00 in0.0 mm 0.00 in0.0 mm
12:05 AM 58.7°F14.8°C 44.9°F7.2°C 60% 1.5 mph SE2.4 kmh SE 5.0 mph8.0 kmh 30.30 in1026.1 mb 0.00 in0.0 mm 0.00 in0.0 mm 0.00 in0.0 mm
12:00 AM 58.9°F14.9°C 45.0°F7.2°C 60% 1.8 mph SE2.9 kmh SE 5.0 mph8.0 kmh 30.30 in1026.1 mb 0.00 in0.0 mm 0.00 in0.0 mm 0.10 in2.5 mm